Decoded Metar for KSUW (SUPERIOR in WI, USA) (IATA:SUW) | Meteo·Mobile Aviation Weather
aviador You're here:

KSUW Decoded Metar

SUPERIOR in WI, USA
Report Time2019-07-16 10:55:00
UTC Time2019-07-16 11:00:52
Flight Rules vfr VFR
Wind220° at 05 kt
W.Decomp.*RWY 22: 5.0 kt HW 0.1 kt RCW
RWY 14: 0.8 kt HW 4.9 kt RCW
Visibility9999 m
Phenomena:N/A
Clouds:N/A
CeilingNone
Temp19°C (ISA +5)
Dew Point19°C (100% RH)
QNH1009 hPa
Density Alt1,732 ft
Elevation676 ft
Report Wrong Elevation
Raw Report
KSUW 161055Z AUTO 22005KT 10SM CLR 19/19 A2980 RMK AO2
T01910191=

Extra information for KSUW:More info

Metar Taf Metar & Taf Last 4 Metars F.Rules Stats Wind Profile Meteogram Temp Stats Airport Information Weather charts Add Link Nearby VenuesMetar ALERT Operation Metar Decoded Social comments

AIRNAV info for KSUW